Time;durP1;ratioP1;P1;durP2;ratioP2;P2;SDS_P1;SDS_P2;PMS_P1;PMS_P2;Temp;Humidity;BMP_temperature;BMP_pressure;BME280_temperature;BME280_humidity;BME280_pressure;Samples;Min_cycle;Max_cycle;Signal;HPM_P1;HPM_P2
2022/03/12 00:01:49;;;;;;;1999.90;999.90;;;;;;;2.67;35.90;102161.78;15457446;28;20118;-61
2022/03/12 00:09:25;;;;;;;1999.90;999.90;;;;;;;2.49;36.10;102159.22;15448907;28;20042;-61
2022/03/12 00:16:57;;;;;;;1999.90;999.90;;;;;;;2.55;36.03;102155.50;15458488;28;20105;-60
2022/03/12 00:24:31;;;;;;;1999.90;999.90;;;;;;;2.56;36.12;102154.41;15437736;28;20494;-58
2022/03/12 00:32:05;;;;;;;;;;;;;;;2.57;36.63;102159.66;15419600;28;20047;-60
2022/03/12 00:39:39;;;;;;;1999.90;999.90;;;;;;;2.39;37.05;102162.59;15448824;28;20267;-61
2022/03/12 00:47:13;;;;;;;1999.90;999.90;;;;;;;2.11;37.87;102163.38;15449233;28;20174;-61
2022/03/12 00:54:50;;;;;;;1999.90;999.90;;;;;;;2.08;37.60;102161.09;15434891;23;20138;-61
2022/03/12 01:02:24;;;;;;;1999.90;999.90;;;;;;;1.96;37.92;102152.84;15444292;28;20093;-61
2022/03/12 01:09:57;;;;;;;1999.90;999.90;;;;;;;1.85;38.36;102142.69;15476080;28;20039;-60
2022/03/12 01:17:31;;;;;;;1999.90;999.90;;;;;;;1.85;38.11;102134.41;15464977;28;20093;-61
2022/03/12 01:25:05;;;;;;;;;;;;;;;1.89;38.28;102146.66;15469872;28;20053;-62
2022/03/12 01:32:39;;;;;;;1999.90;999.90;;;;;;;1.64;39.15;102143.28;15440261;28;20001;-60
2022/03/12 01:40:13;;;;;;;1999.90;999.90;;;;;;;1.70;38.99;102134.09;15462323;28;20054;-61
2022/03/12 01:47:46;;;;;;;1999.90;999.90;;;;;;;1.64;39.13;102122.09;15433076;28;20050;-61
2022/03/12 01:55:21;;;;;;;1999.90;999.90;;;;;;;1.65;38.91;102120.19;15431045;28;20047;-60
2022/03/12 02:02:54;;;;;;;1999.90;999.90;;;;;;;1.49;39.25;102121.75;15456209;28;20034;-61
2022/03/12 02:10:28;;;;;;;1999.90;999.90;;;;;;;1.28;39.99;102122.34;15448504;28;20035;-61
2022/03/12 02:18:00;;;;;;;;;;;;;;;1.53;39.54;102111.94;15448806;28;20145;-62
2022/03/12 02:25:35;;;;;;;1999.90;999.90;;;;;;;1.43;39.61;102100.69;15472620;28;20291;-60
2022/03/12 02:33:07;;;;;;;1999.90;999.90;;;;;;;1.41;39.33;102097.34;15457392;28;20050;-62
2022/03/12 02:40:44;;;;;;;1999.90;999.90;;;;;;;1.50;39.88;102098.66;15459530;28;20043;-60
2022/03/12 02:48:16;;;;;;;1999.90;999.90;;;;;;;1.49;39.77;102101.66;15422438;28;20077;-61
2022/03/12 02:55:51;;;;;;;1999.90;999.90;;;;;;;1.55;39.79;102098.78;15437666;28;20058;-62
2022/03/12 03:03:24;;;;;;;1999.90;999.90;;;;;;;1.52;39.66;102099.25;15465262;28;20050;-59
2022/03/12 03:10:59;;;;;;;1999.90;999.90;;;;;;;1.47;39.91;102098.31;15458948;28;20464;-60
2022/03/12 03:18:33;;;;;;;1999.90;999.90;;;;;;;1.47;39.43;102106.56;15432803;28;20045;-60
2022/03/12 03:26:07;;;;;;;1999.90;999.90;;;;;;;1.35;39.79;102101.88;15482058;28;20042;-61
2022/03/12 03:33:39;;;;;;;;;;;;;;;1.31;40.24;102097.09;15462606;28;20490;-62
2022/03/12 03:41:12;;;;;;;1999.90;999.90;;;;;;;0.98;41.04;102092.16;15457246;28;19922;-60
2022/03/12 03:48:47;;;;;;;1999.90;999.90;;;;;;;1.00;40.38;102092.75;15440452;28;20416;-60
2022/03/12 03:56:21;;;;;;;1999.90;999.90;;;;;;;0.88;40.93;102072.66;15450195;28;20057;-62
2022/03/12 04:03:54;;;;;;;1999.90;999.90;;;;;;;0.82;41.42;102080.75;15443582;28;20048;-61
2022/03/12 04:11:27;;;;;;;1999.90;999.90;;;;;;;0.67;41.15;102091.34;15462882;28;20046;-60
2022/03/12 04:19:05;;;;;;;1999.90;999.90;;;;;;;0.64;41.28;102100.06;15475727;28;20047;-61
2022/03/12 04:26:40;;;;;;;1999.90;999.90;;;;;;;0.67;42.08;102091.34;15450119;28;20046;-62
2022/03/12 04:34:14;;;;;;;1999.90;999.90;;;;;;;0.54;41.80;102094.28;15433733;28;20404;-61
2022/03/12 04:41:47;;;;;;;1999.90;999.90;;;;;;;0.57;42.14;102080.06;15437324;28;20573;-60
2022/03/12 04:49:20;;;;;;;1999.90;999.90;;;;;;;0.33;42.19;102092.03;15458813;28;20070;-60
2022/03/12 04:56:56;;;;;;;1999.90;999.90;;;;;;;0.45;42.42;102098.44;15454163;28;20050;-61
2022/03/12 05:04:29;;;;;;;1999.90;999.90;;;;;;;0.22;42.89;102094.50;15450018;28;20507;-62
2022/03/12 05:12:05;;;;;;;1999.90;999.90;;;;;;;0.43;42.18;102104.16;15436064;28;20053;-61
2022/03/12 05:19:37;;;;;;;1999.90;999.90;;;;;;;0.39;42.65;102104.84;15463794;28;20073;-62
2022/03/12 05:27:13;;;;;;;1999.90;999.90;;;;;;;0.33;42.23;102103.88;15436803;28;20047;-62
2022/03/12 05:34:46;;;;;;;1999.90;999.90;;;;;;;0.31;42.61;102114.22;15470419;28;20043;-61
2022/03/12 05:42:22;;;;;;;1999.90;999.90;;;;;;;0.33;42.25;102114.84;15459699;28;20660;-61
2022/03/12 05:49:54;;;;;;;1999.90;999.90;;;;;;;0.31;42.53;102127.13;15460878;28;20415;-60
2022/03/12 05:57:29;;;;;;;1999.90;999.90;;;;;;;0.40;41.93;102122.97;15490695;28;20460;-64
2022/03/12 06:05:01;;;;;;;1999.90;999.90;;;;;;;0.65;41.36;102134.69;15441768;28;20121;-62
2022/03/12 06:12:37;;;;;;;1999.90;999.90;;;;;;;0.92;41.81;102146.13;15446798;28;20079;-62
2022/03/12 06:20:10;;;;;;;1999.90;999.90;;;;;;;0.79;42.03;102136.19;15449184;28;20275;-60
2022/03/12 06:27:47;;;;;;;1999.90;999.90;;;;;;;0.86;41.41;102127.84;15463939;28;20457;-60
2022/03/12 06:35:19;;;;;;;1999.90;999.90;;;;;;;1.19;40.78;102132.00;15470564;28;20550;-60
2022/03/12 06:42:55;;;;;;;1999.90;999.90;;;;;;;1.48;40.71;102138.50;15465286;28;20579;-59
2022/03/12 06:50:27;;;;;;;1999.90;999.90;;;;;;;1.63;39.81;102136.09;15453229;23;20042;-63
2022/03/12 06:58:01;;;;;;;1999.90;999.90;;;;;;;2.65;38.35;102147.44;15388106;28;20035;-63
2022/03/12 07:05:34;;;;;;;1999.90;999.90;;;;;;;3.93;35.98;102153.22;15436733;28;20197;-63
2022/03/12 07:13:07;;;;;;;1999.90;999.90;;;;;;;4.84;34.73;102154.41;15423163;28;20108;-62
2022/03/12 07:20:39;;;;;;;;;;;;;;;5.30;33.71;102162.31;15447505;28;20062;-63
2022/03/12 07:28:17;;;;;;;1999.90;999.90;;;;;;;5.42;32.95;102172.16;15451876;28;19922;-62
2022/03/12 07:35:49;;;;;;;1999.90;999.90;;;;;;;6.30;32.61;102169.75;15472584;28;20148;-61
2022/03/12 07:43:23;;;;;;;1999.90;999.90;;;;;;;6.45;31.09;102182.00;15464430;28;20464;-61
2022/03/12 07:50:58;;;;;;;1999.90;999.90;;;;;;;6.90;30.51;102168.34;15446823;28;20370;-62
2022/03/12 07:58:32;;;;;;;1999.90;999.90;;;;;;;6.92;30.07;102159.75;15455069;28;20047;-62
2022/03/12 08:06:05;;;;;;;1999.90;999.90;;;;;;;6.90;29.67;102171.13;15421998;28;20046;-62
2022/03/12 08:13:39;;;;;;;1999.90;999.90;;;;;;;8.31;28.90;102178.88;15420382;28;20054;-63
2022/03/12 08:21:11;;;;;;;;;;;;;;;8.82;27.92;102168.44;15419299;28;20047;-63
2022/03/12 08:28:45;;;;;;;1999.90;999.90;;;;;;;8.78;28.24;102169.31;15403445;28;19922;-61
2022/03/12 08:36:17;;;;;;;1999.90;999.90;;;;;;;8.99;27.61;102162.50;15403646;28;20039;-63
2022/03/12 08:43:52;;;;;;;1999.90;999.90;;;;;;;9.67;26.00;102164.50;15420275;28;20142;-63
2022/03/12 08:51:24;;;;;;;1999.90;999.90;;;;;;;10.54;24.28;102173.69;15418462;28;20039;-63
2022/03/12 08:58:58;;;;;;;1999.90;999.90;;;;;;;11.04;23.13;102176.09;15417740;28;20047;-61
2022/03/12 09:06:32;;;;;;;1999.90;999.90;;;;;;;10.90;23.99;102173.22;15417831;28;20156;-63
2022/03/12 09:14:06;;;;;;;1999.90;999.90;;;;;;;10.63;22.84;102163.53;15412287;28;20298;-62
2022/03/12 09:21:39;;;;;;;1999.90;999.90;;;;;;;11.22;22.16;102170.53;15406765;28;20074;-63
2022/03/12 09:29:13;;;;;;;1999.90;999.90;;;;;;;11.44;21.92;102161.50;15405826;28;20414;-62
2022/03/12 09:36:46;;;;;;;1999.90;999.90;;;;;;;12.33;20.28;102152.97;15411664;28;20051;-62
2022/03/12 09:44:19;;;;;;;1999.90;999.90;;;;;;;12.71;19.42;102144.34;15395303;28;20444;-62
2022/03/12 09:51:51;;;;;;;;;;;;;;;12.71;20.89;102133.13;15428130;28;20051;-62
2022/03/12 09:59:25;;;;;;;1999.90;999.90;;;;;;;12.68;20.26;102130.97;15426477;28;19984;-62
2022/03/12 10:06:59;;;;;;;1999.90;999.90;;;;;;;12.56;20.40;102130.66;15410943;28;20132;-62
2022/03/12 10:14:33;;;;;;;1999.90;999.90;;;;;;;13.85;19.90;102116.94;15442328;28;20056;-63
2022/03/12 10:22:08;;;;;;;1999.90;999.90;;;;;;;13.27;20.14;102118.72;15391965;28;20504;-61
2022/03/12 10:29:42;;;;;;;1999.90;999.90;;;;;;;12.83;20.21;102110.22;15426455;28;20042;-62
2022/03/12 10:37:19;;;;;;;1999.90;999.90;;;;;;;13.99;19.54;102106.47;15408111;28;20039;-61
2022/03/12 10:44:52;;;;;;;1999.90;999.90;;;;;;;15.66;18.42;102104.47;15425990;28;20122;-63
2022/03/12 10:52:27;;;;;;;1999.90;999.90;;;;;;;15.35;18.85;102096.19;15398718;28;20054;-62
2022/03/12 11:00:02;;;;;;;1999.90;999.90;;;;;;;15.74;18.44;102101.63;15406371;28;20186;-62
2022/03/12 11:07:35;;;;;;;1999.90;999.90;;;;;;;16.15;17.24;102075.66;15408163;28;20126;-63
2022/03/12 11:15:15;;;;;;;1999.90;999.90;;;;;;;14.58;18.31;102075.31;15424455;28;20125;-62
2022/03/12 11:22:50;;;;;;;1999.90;999.90;;;;;;;15.46;17.58;102080.63;15424467;28;20043;-62
2022/03/12 11:30:24;;;;;;;1999.90;999.90;;;;;;;16.89;16.36;102091.16;15423850;28;20043;-62
2022/03/12 11:38:01;;;;;;;1999.90;999.90;;;;;;;16.36;16.32;102072.03;15424378;28;20043;-62
2022/03/12 11:45:34;;;;;;;1999.90;999.90;;;;;;;16.60;16.42;102055.34;15440220;28;20097;-62
2022/03/12 11:53:07;;;;;;;;;;;;;;;16.34;16.98;102027.31;15483680;28;20043;-62
2022/03/12 12:00:44;;;;;;;1999.90;999.90;;;;;;;17.07;16.71;102052.34;15430176;28;19949;-62
2022/03/12 12:08:16;;;;;;;1999.90;999.90;;;;;;;17.46;15.17;102030.41;15421696;28;20447;-62
2022/03/12 12:15:50;;;;;;;1999.90;999.90;;;;;;;16.70;16.14;102021.16;15432805;28;20054;-62
2022/03/12 12:23:22;;;;;;;;;;;;;;;17.18;16.54;102007.63;15442757;28;20494;-61
2022/03/12 12:30:59;;;;;;;1999.90;999.90;;;;;;;17.22;15.36;102008.59;15428302;28;19976;-62
2022/03/12 12:38:31;;;;;;;1999.90;999.90;;;;;;;18.48;15.55;101997.53;15411928;28;20415;-62
2022/03/12 12:46:17;;;;;;;1999.90;999.90;;;;;;;18.74;15.12;101992.31;15414319;28;20487;-62
2022/03/12 12:53:50;;;;;;;1999.90;999.90;;;;;;;19.34;15.40;101984.75;15447139;23;20043;-64
2022/03/12 13:01:25;;;;;;;;;;;;;;;19.73;14.36;101982.19;15438063;28;20053;-65
2022/03/12 13:08:57;;;;;;;1999.90;999.90;;;;;;;19.97;14.62;101969.81;15421315;28;19922;-64
2022/03/12 13:16:48;;;;;;;1999.90;999.90;;;;;;;21.11;14.72;101955.38;15436818;28;20054;-66
2022/03/12 13:24:21;;;;;;;1999.90;999.90;;;;;;;20.74;14.06;101959.50;15435582;28;20053;-66
2022/03/12 13:31:54;;;;;;;1999.90;999.90;;;;;;;19.73;14.17;101949.03;15436505;28;20051;-65
2022/03/12 13:39:28;;;;;;;1999.90;999.90;;;;;;;21.54;12.84;101934.28;15459704;28;20046;-67
2022/03/12 13:47:02;;;;;;;1999.90;999.90;;;;;;;16.52;16.53;101926.59;15470387;28;20054;-64
2022/03/12 13:54:34;;;;;;;1999.90;999.90;;;;;;;15.09;17.50;101894.59;15429609;28;20113;-63
2022/03/12 14:02:12;;;;;;;1999.90;999.90;;;;;;;14.34;18.34;101899.63;15433593;28;20105;-64
2022/03/12 14:09:46;;;;;;;1999.90;999.90;;;;;;;14.25;18.42;101906.41;15434117;28;20101;-63
2022/03/12 14:17:27;;;;;;;1999.90;999.90;;;;;;;14.10;17.92;101904.91;15433772;28;20204;-64
2022/03/12 14:25:05;;;;;;;1999.90;999.90;;;;;;;13.82;18.98;101893.13;15417086;28;20047;-63
2022/03/12 14:32:40;;;;;;;1999.90;999.90;;;;;;;13.87;19.11;101881.78;15432700;28;20074;-64
2022/03/12 14:40:12;;;;;;;1999.90;999.90;;;;;;;13.48;19.25;101880.69;15431225;28;20269;-63
2022/03/12 14:47:48;;;;;;;1999.90;999.90;;;;;;;13.76;19.00;101877.63;15431662;28;20047;-61
2022/03/12 14:55:21;;;;;;;1999.90;999.90;;;;;;;13.58;19.32;101866.34;15432270;28;20496;-62
2022/03/12 15:03:06;;;;;;;1999.90;999.90;;;;;;;13.42;19.68;101862.34;15429849;28;20046;-62
2022/03/12 15:10:42;;;;;;;1999.90;999.90;;;;;;;13.08;19.61;101865.78;15431609;28;20062;-61
2022/03/12 15:18:16;;;;;;;1999.90;999.90;;;;;;;13.27;19.47;101860.81;15430709;28;20554;-63
2022/03/12 15:25:58;;;;;;;1999.90;999.90;;;;;;;13.17;20.11;101866.66;15430236;28;20054;-64
2022/03/12 15:33:32;;;;;;;1999.90;999.90;;;;;;;13.18;19.67;101875.91;15428633;28;20150;-63
2022/03/12 15:41:09;;;;;;;1999.90;999.90;;;;;;;12.92;19.02;101872.94;15428613;28;20062;-66
2022/03/12 15:48:45;;;;;;;1999.90;999.90;;;;;;;12.84;19.83;101884.97;15427493;28;20039;-64
2022/03/12 15:56:17;;;;;;;1999.90;999.90;;;;;;;12.91;20.19;101874.94;15427706;28;20074;-62
2022/03/12 16:03:51;;;;;;;1999.90;999.90;;;;;;;12.59;20.53;101875.22;15423889;28;20098;-65
2022/03/12 16:11:23;;;;;;;1999.90;999.90;;;;;;;12.39;21.15;101860.59;15403257;28;20067;-61
2022/03/12 16:18:57;;;;;;;1999.90;999.90;;;;;;;12.37;21.71;101854.47;15399460;28;20403;-62
2022/03/12 16:26:29;;;;;;;1999.90;999.90;;;;;;;11.97;20.94;101853.47;15389978;28;20051;-59
2022/03/12 16:34:08;;;;;;;1999.90;999.90;;;;;;;11.89;21.28;101854.25;15391995;28;20062;-62
2022/03/12 16:41:43;;;;;;;1999.90;999.90;;;;;;;11.64;21.48;101846.38;15378761;28;20053;-61
2022/03/12 16:49:18;;;;;;;1999.90;999.90;;;;;;;11.63;22.07;101853.13;15420821;28;20039;-62
2022/03/12 16:56:51;;;;;;;1999.90;999.90;;;;;;;11.51;21.96;101850.84;15401839;28;20039;-61
2022/03/12 17:04:25;;;;;;;1999.90;999.90;;;;;;;10.82;24.91;101849.97;15400689;28;20134;-62
2022/03/12 17:12:00;;;;;;;1999.90;999.90;;;;;;;10.92;25.52;101845.03;15397465;28;20039;-62
2022/03/12 17:19:34;;;;;;;1999.90;999.90;;;;;;;10.45;26.62;101843.38;15386571;28;20047;-62
2022/03/12 17:27:07;;;;;;;1999.90;999.90;;;;;;;10.37;26.74;101846.84;15394757;28;20461;-63
2022/03/12 17:34:40;;;;;;;1999.90;999.90;;;;;;;9.98;27.18;101844.38;15401459;28;20110;-62
2022/03/12 17:42:14;;;;;;;1999.90;999.90;;;;;;;9.86;27.47;101844.81;15427657;28;20508;-62
2022/03/12 17:49:48;;;;;;;1999.90;999.90;;;;;;;9.79;27.88;101850.75;15376953;28;20122;-63
2022/03/12 17:57:20;;;;;;;1999.90;999.90;;;;;;;9.69;27.64;101847.28;15428950;28;20405;-62
2022/03/12 18:04:54;;;;;;;1999.90;999.90;;;;;;;9.66;27.46;101845.09;15393795;28;20047;-60
2022/03/12 18:12:28;;;;;;;1999.90;999.90;;;;;;;9.31;27.70;101840.84;15430033;28;20497;-62
2022/03/12 18:20:06;;;;;;;1999.90;999.90;;;;;;;9.13;28.10;101843.25;15393576;28;20042;-60
2022/03/12 18:27:40;;;;;;;1999.90;999.90;;;;;;;8.85;28.97;101846.91;15430644;28;20535;-61
2022/03/12 18:35:16;;;;;;;1999.90;999.90;;;;;;;8.84;28.83;101854.41;15426750;28;20050;-63
2022/03/12 18:42:51;;;;;;;1999.90;999.90;;;;;;;8.48;29.41;101850.31;15414623;28;20515;-65
2022/03/12 18:50:27;;;;;;;1999.90;999.90;;;;;;;8.56;29.03;101849.72;15404007;28;20047;-66
2022/03/12 18:58:01;;;;;;;1999.90;999.90;;;;;;;8.36;29.39;101850.72;15377367;28;20046;-63
2022/03/12 19:05:49;;;;;;;1999.90;999.90;;;;;;;8.33;29.44;101842.91;15384852;28;20236;-62
2022/03/12 19:13:27;;;;;;;1999.90;999.90;;;;;;;7.97;30.14;101834.84;15411071;28;20170;-62
2022/03/12 19:21:03;;;;;;;1999.90;999.90;;;;;;;8.05;30.13;101850.06;15441928;28;20035;-66
2022/03/12 19:28:41;;;;;;;1999.90;999.90;;;;;;;8.08;30.31;101860.63;15393679;28;20093;-66
2022/03/12 19:36:19;;;;;;;1999.90;999.90;;;;;;;7.77;31.28;101858.03;15406067;28;20054;-60
2022/03/12 19:44:03;;;;;;;1999.90;999.90;;;;;;;7.61;31.56;101861.16;15407319;28;20197;-60
2022/03/12 19:51:41;;;;;;;1999.90;999.90;;;;;;;7.74;31.55;101866.94;15412883;28;20047;-64
2022/03/12 19:59:16;;;;;;;1999.90;999.90;;;;;;;7.51;31.51;101865.66;15422622;28;20050;-57
2022/03/12 20:06:52;;;;;;;1999.90;999.90;;;;;;;7.39;32.44;101865.13;15392973;28;20106;-62
2022/03/12 20:14:25;;;;;;;1999.90;999.90;;;;;;;7.31;32.69;101870.47;15398033;28;20121;-60
2022/03/12 20:21:59;;;;;;;1999.90;999.90;;;;;;;7.11;32.49;101863.88;15415573;28;20043;-61
2022/03/12 20:29:31;;;;;;;1999.90;999.90;;;;;;;7.04;32.97;101877.19;15406190;28;20039;-61
2022/03/12 20:37:07;;;;;;;1999.90;999.90;;;;;;;7.11;32.64;101874.97;15406216;28;20050;-63
2022/03/12 20:44:40;;;;;;;1999.90;999.90;;;;;;;6.73;33.57;101870.88;15414453;28;20268;-61
2022/03/12 20:52:14;;;;;;;1999.90;999.90;;;;;;;6.65;34.02;101871.44;15379549;28;20421;-63
2022/03/12 20:59:46;;;;;;;1999.90;999.90;;;;;;;6.33;34.53;101872.56;15399474;28;20504;-61
2022/03/12 21:07:20;;;;;;;1999.90;999.90;;;;;;;6.13;34.32;101864.22;15427102;28;20043;-62
2022/03/12 21:14:55;;;;;;;1999.90;999.90;;;;;;;6.24;34.48;101856.75;15425719;28;20480;-62
2022/03/12 21:22:30;;;;;;;1999.90;999.90;;;;;;;6.29;34.13;101865.06;15417104;28;20093;-62
2022/03/12 21:30:03;;;;;;;1999.90;999.90;;;;;;;5.96;34.55;101858.13;15412811;28;20043;-59
2022/03/12 21:37:37;;;;;;;1999.90;999.90;;;;;;;5.86;34.69;101858.06;15422404;28;20054;-61
2022/03/12 21:45:10;;;;;;;1999.90;999.90;;;;;;;6.00;34.99;101856.44;15431861;28;20049;-61
2022/03/12 21:52:43;;;;;;;1999.90;999.90;;;;;;;5.75;34.64;101863.56;15402645;28;20455;-62
2022/03/12 22:00:24;;;;;;;1999.90;999.90;;;;;;;5.94;34.29;101858.41;15399509;28;20038;-61
2022/03/12 22:07:59;;;;;;;1999.90;999.90;;;;;;;5.65;34.57;101857.19;15430695;28;20051;-61
2022/03/12 22:15:34;;;;;;;1999.90;999.90;;;;;;;5.83;34.41;101851.09;15421592;28;20145;-61
2022/03/12 22:23:08;;;;;;;1999.90;999.90;;;;;;;5.51;35.47;101852.13;15432936;28;20084;-63
2022/03/12 22:30:40;;;;;;;1999.90;999.90;;;;;;;5.31;35.86;101840.97;15432091;28;20447;-63
2022/03/12 22:38:14;;;;;;;1999.90;999.90;;;;;;;5.25;35.30;101822.69;15431441;28;20519;-62
2022/03/12 22:45:48;;;;;;;1999.90;999.90;;;;;;;5.11;36.43;101821.53;15429560;28;20475;-62
2022/03/12 22:53:22;;;;;;;1999.90;999.90;;;;;;;4.99;36.32;101804.31;15424368;28;20448;-60
2022/03/12 23:01:27;;;;;;;;;;;;;;;4.76;36.99;101795.34;15429729;28;20079;-61
2022/03/12 23:09:02;;;;;;;1999.90;999.90;;;;;;;4.59;37.15;101787.25;15429807;28;20463;-62
2022/03/12 23:16:38;;;;;;;1999.90;999.90;;;;;;;4.60;37.01;101779.78;15429757;28;20428;-62
2022/03/12 23:24:11;;;;;;;1999.90;999.90;;;;;;;4.46;36.39;101781.34;15433315;28;20043;-62
2022/03/12 23:31:49;;;;;;;1999.90;999.90;;;;;;;4.43;36.60;101791.00;15413770;28;20381;-62
2022/03/12 23:39:25;;;;;;;1999.90;999.90;;;;;;;4.32;36.56;101784.56;15429567;28;20456;-63
2022/03/12 23:46:59;;;;;;;1999.90;999.90;;;;;;;4.25;36.41;101786.72;15429666;28;20050;-63
2022/03/12 23:54:32;;;;;;;;;;;;;;;4.27;36.50;101778.16;15428829;28;20054;-63
